sensor_id;sensor_type;location;lat;lon;timestamp;P1;durP1;ratioP1;P2;durP2;ratioP2
36443;SDS011;24692;45.642;13.806;2022-12-18T00:01:04;11.57;;;6.40;;
36443;SDS011;24692;45.642;13.806;2022-12-18T00:03:38;10.80;;;6.90;;
36443;SDS011;24692;45.642;13.806;2022-12-18T00:06:04;9.13;;;5.93;;
36443;SDS011;24692;45.642;13.806;2022-12-18T00:08:29;10.23;;;6.20;;
36443;SDS011;24692;45.642;13.806;2022-12-18T00:10:55;10.67;;;6.57;;
36443;SDS011;24692;45.642;13.806;2022-12-18T00:13:27;10.17;;;6.70;;
36443;SDS011;24692;45.642;13.806;2022-12-18T00:15:53;9.30;;;6.37;;
36443;SDS011;24692;45.642;13.806;2022-12-18T00:18:19;10.00;;;6.60;;
36443;SDS011;24692;45.642;13.806;2022-12-18T00:20:44;12.23;;;6.93;;
36443;SDS011;24692;45.642;13.806;2022-12-18T00:23:10;10.73;;;6.80;;
36443;SDS011;24692;45.642;13.806;2022-12-18T00:25:36;11.63;;;7.23;;
36443;SDS011;24692;45.642;13.806;2022-12-18T00:28:02;11.20;;;7.43;;
36443;SDS011;24692;45.642;13.806;2022-12-18T00:30:28;10.77;;;7.27;;
36443;SDS011;24692;45.642;13.806;2022-12-18T00:32:54;12.13;;;7.47;;
36443;SDS011;24692;45.642;13.806;2022-12-18T00:35:20;9.10;;;6.80;;
36443;SDS011;24692;45.642;13.806;2022-12-18T00:37:46;10.70;;;7.10;;
36443;SDS011;24692;45.642;13.806;2022-12-18T00:40:12;10.10;;;6.77;;
36443;SDS011;24692;45.642;13.806;2022-12-18T00:42:38;11.20;;;7.60;;
36443;SDS011;24692;45.642;13.806;2022-12-18T00:45:25;12.87;;;7.37;;
36443;SDS011;24692;45.642;13.806;2022-12-18T00:47:52;10.93;;;7.20;;
36443;SDS011;24692;45.642;13.806;2022-12-18T00:50:19;10.40;;;6.93;;
36443;SDS011;24692;45.642;13.806;2022-12-18T00:52:45;10.47;;;6.90;;
36443;SDS011;24692;45.642;13.806;2022-12-18T00:55:11;11.30;;;7.33;;
36443;SDS011;24692;45.642;13.806;2022-12-18T00:57:37;12.13;;;7.43;;
36443;SDS011;24692;45.642;13.806;2022-12-18T01:00:04;11.97;;;7.67;;
36443;SDS011;24692;45.642;13.806;2022-12-18T01:02:31;13.30;;;7.97;;
36443;SDS011;24692;45.642;13.806;2022-12-18T01:04:56;11.53;;;7.37;;
36443;SDS011;24692;45.642;13.806;2022-12-18T01:07:22;11.93;;;7.73;;
36443;SDS011;24692;45.642;13.806;2022-12-18T01:09:47;11.53;;;7.77;;
36443;SDS011;24692;45.642;13.806;2022-12-18T01:12:13;12.80;;;7.60;;
36443;SDS011;24692;45.642;13.806;2022-12-18T01:14:39;13.10;;;8.07;;
36443;SDS011;24692;45.642;13.806;2022-12-18T01:17:04;13.80;;;8.03;;
36443;SDS011;24692;45.642;13.806;2022-12-18T01:19:30;12.17;;;7.87;;
36443;SDS011;24692;45.642;13.806;2022-12-18T01:21:56;11.93;;;7.80;;
36443;SDS011;24692;45.642;13.806;2022-12-18T01:24:22;13.13;;;8.30;;
36443;SDS011;24692;45.642;13.806;2022-12-18T01:26:48;14.57;;;8.20;;
36443;SDS011;24692;45.642;13.806;2022-12-18T01:29:13;12.50;;;8.00;;
36443;SDS011;24692;45.642;13.806;2022-12-18T01:31:39;13.80;;;8.27;;
36443;SDS011;24692;45.642;13.806;2022-12-18T01:34:05;12.20;;;7.77;;
36443;SDS011;24692;45.642;13.806;2022-12-18T01:36:35;13.17;;;8.13;;
36443;SDS011;24692;45.642;13.806;2022-12-18T01:39:03;14.23;;;8.80;;
36443;SDS011;24692;45.642;13.806;2022-12-18T01:41:31;14.80;;;8.63;;
36443;SDS011;24692;45.642;13.806;2022-12-18T01:47:42;13.33;;;8.23;;
36443;SDS011;24692;45.642;13.806;2022-12-18T01:50:19;13.50;;;8.47;;
36443;SDS011;24692;45.642;13.806;2022-12-18T01:53:07;10.83;;;6.87;;
36443;SDS011;24692;45.642;13.806;2022-12-18T01:55:40;15.13;;;8.50;;
36443;SDS011;24692;45.642;13.806;2022-12-18T01:58:11;12.70;;;8.17;;
36443;SDS011;24692;45.642;13.806;2022-12-18T02:00:37;13.40;;;8.40;;
36443;SDS011;24692;45.642;13.806;2022-12-18T02:03:03;13.13;;;8.70;;
36443;SDS011;24692;45.642;13.806;2022-12-18T02:08:20;15.50;;;9.47;;
36443;SDS011;24692;45.642;13.806;2022-12-18T02:19:09;14.47;;;8.60;;
36443;SDS011;24692;45.642;13.806;2022-12-18T02:27:34;13.63;;;8.53;;
36443;SDS011;24692;45.642;13.806;2022-12-18T02:30:03;14.03;;;8.47;;
36443;SDS011;24692;45.642;13.806;2022-12-18T02:32:31;14.10;;;8.50;;
36443;SDS011;24692;45.642;13.806;2022-12-18T02:35:04;13.10;;;8.50;;
36443;SDS011;24692;45.642;13.806;2022-12-18T02:37:32;13.97;;;8.40;;
36443;SDS011;24692;45.642;13.806;2022-12-18T02:39:59;14.63;;;8.77;;
36443;SDS011;24692;45.642;13.806;2022-12-18T02:42:27;15.93;;;9.07;;
36443;SDS011;24692;45.642;13.806;2022-12-18T02:44:54;16.60;;;9.57;;
36443;SDS011;24692;45.642;13.806;2022-12-18T02:47:21;14.13;;;8.47;;
36443;SDS011;24692;45.642;13.806;2022-12-18T02:58:09;15.00;;;9.07;;
36443;SDS011;24692;45.642;13.806;2022-12-18T03:00:58;14.90;;;8.63;;
36443;SDS011;24692;45.642;13.806;2022-12-18T03:03:36;14.23;;;9.13;;
36443;SDS011;24692;45.642;13.806;2022-12-18T03:06:10;15.27;;;8.83;;
36443;SDS011;24692;45.642;13.806;2022-12-18T03:08:44;16.47;;;9.13;;
36443;SDS011;24692;45.642;13.806;2022-12-18T03:11:13;15.37;;;9.23;;
36443;SDS011;24692;45.642;13.806;2022-12-18T03:16:10;14.67;;;8.07;;
36443;SDS011;24692;45.642;13.806;2022-12-18T03:18:40;13.53;;;8.50;;
36443;SDS011;24692;45.642;13.806;2022-12-18T03:21:08;14.33;;;8.90;;
36443;SDS011;24692;45.642;13.806;2022-12-18T03:23:40;15.73;;;9.23;;
36443;SDS011;24692;45.642;13.806;2022-12-18T03:26:10;18.77;;;10.00;;
36443;SDS011;24692;45.642;13.806;2022-12-18T03:28:42;16.57;;;9.10;;
36443;SDS011;24692;45.642;13.806;2022-12-18T03:31:11;17.07;;;9.87;;
36443;SDS011;24692;45.642;13.806;2022-12-18T03:33:43;14.87;;;9.27;;
36443;SDS011;24692;45.642;13.806;2022-12-18T03:36:25;16.13;;;9.43;;
36443;SDS011;24692;45.642;13.806;2022-12-18T03:38:51;14.93;;;9.27;;
36443;SDS011;24692;45.642;13.806;2022-12-18T03:41:26;16.67;;;9.27;;
36443;SDS011;24692;45.642;13.806;2022-12-18T03:46:42;16.97;;;9.47;;
36443;SDS011;24692;45.642;13.806;2022-12-18T03:49:15;16.03;;;9.17;;
36443;SDS011;24692;45.642;13.806;2022-12-18T03:52:07;15.90;;;9.00;;
36443;SDS011;24692;45.642;13.806;2022-12-18T03:54:36;17.93;;;10.43;;
36443;SDS011;24692;45.642;13.806;2022-12-18T03:57:08;14.77;;;9.30;;
36443;SDS011;24692;45.642;13.806;2022-12-18T03:59:41;18.07;;;10.00;;
36443;SDS011;24692;45.642;13.806;2022-12-18T04:02:10;17.70;;;9.70;;
36443;SDS011;24692;45.642;13.806;2022-12-18T04:04:36;17.20;;;9.30;;
36443;SDS011;24692;45.642;13.806;2022-12-18T04:07:04;18.40;;;10.67;;
36443;SDS011;24692;45.642;13.806;2022-12-18T04:09:31;16.33;;;9.57;;
36443;SDS011;24692;45.642;13.806;2022-12-18T04:11:59;15.60;;;8.77;;
36443;SDS011;24692;45.642;13.806;2022-12-18T04:14:25;17.77;;;10.23;;
36443;SDS011;24692;45.642;13.806;2022-12-18T04:16:51;16.60;;;9.73;;
36443;SDS011;24692;45.642;13.806;2022-12-18T04:19:16;16.37;;;9.43;;
36443;SDS011;24692;45.642;13.806;2022-12-18T04:21:42;16.23;;;9.53;;
36443;SDS011;24692;45.642;13.806;2022-12-18T04:24:08;16.93;;;9.67;;
36443;SDS011;24692;45.642;13.806;2022-12-18T04:26:33;14.67;;;9.20;;
36443;SDS011;24692;45.642;13.806;2022-12-18T04:28:59;16.83;;;10.33;;
36443;SDS011;24692;45.642;13.806;2022-12-18T04:31:25;16.33;;;9.87;;
36443;SDS011;24692;45.642;13.806;2022-12-18T04:33:51;17.20;;;9.83;;
36443;SDS011;24692;45.642;13.806;2022-12-18T04:36:17;16.80;;;10.37;;
36443;SDS011;24692;45.642;13.806;2022-12-18T04:38:42;19.20;;;10.60;;
36443;SDS011;24692;45.642;13.806;2022-12-18T04:41:08;17.93;;;10.00;;
36443;SDS011;24692;45.642;13.806;2022-12-18T04:43:34;15.90;;;10.30;;
36443;SDS011;24692;45.642;13.806;2022-12-18T04:46:03;18.23;;;10.17;;
36443;SDS011;24692;45.642;13.806;2022-12-18T04:48:30;17.87;;;9.87;;
36443;SDS011;24692;45.642;13.806;2022-12-18T04:50:56;18.30;;;10.50;;
36443;SDS011;24692;45.642;13.806;2022-12-18T04:53:21;19.97;;;10.83;;
36443;SDS011;24692;45.642;13.806;2022-12-18T04:55:47;18.80;;;10.77;;
36443;SDS011;24692;45.642;13.806;2022-12-18T04:58:13;18.60;;;10.50;;
36443;SDS011;24692;45.642;13.806;2022-12-18T05:00:38;18.53;;;10.30;;
36443;SDS011;24692;45.642;13.806;2022-12-18T05:03:04;18.07;;;10.93;;
36443;SDS011;24692;45.642;13.806;2022-12-18T05:05:30;17.20;;;10.70;;
36443;SDS011;24692;45.642;13.806;2022-12-18T05:07:56;19.40;;;11.63;;
36443;SDS011;24692;45.642;13.806;2022-12-18T05:10:21;19.90;;;10.70;;
36443;SDS011;24692;45.642;13.806;2022-12-18T05:12:47;18.53;;;10.57;;
36443;SDS011;24692;45.642;13.806;2022-12-18T05:15:29;19.17;;;10.40;;
36443;SDS011;24692;45.642;13.806;2022-12-18T05:17:56;19.20;;;11.20;;
36443;SDS011;24692;45.642;13.806;2022-12-18T05:20:22;17.57;;;10.43;;
36443;SDS011;24692;45.642;13.806;2022-12-18T05:22:48;20.00;;;10.70;;
36443;SDS011;24692;45.642;13.806;2022-12-18T05:25:14;18.13;;;10.53;;
36443;SDS011;24692;45.642;13.806;2022-12-18T05:27:40;20.80;;;11.10;;
36443;SDS011;24692;45.642;13.806;2022-12-18T05:30:06;19.03;;;11.23;;
36443;SDS011;24692;45.642;13.806;2022-12-18T05:32:33;19.93;;;10.73;;
36443;SDS011;24692;45.642;13.806;2022-12-18T05:34:58;18.67;;;10.97;;
36443;SDS011;24692;45.642;13.806;2022-12-18T05:37:24;20.73;;;11.53;;
36443;SDS011;24692;45.642;13.806;2022-12-18T05:39:50;17.80;;;10.47;;
36443;SDS011;24692;45.642;13.806;2022-12-18T05:42:15;19.77;;;11.70;;
36443;SDS011;24692;45.642;13.806;2022-12-18T05:44:41;21.10;;;11.40;;
36443;SDS011;24692;45.642;13.806;2022-12-18T05:47:08;19.80;;;11.20;;
36443;SDS011;24692;45.642;13.806;2022-12-18T05:49:33;20.30;;;11.67;;
36443;SDS011;24692;45.642;13.806;2022-12-18T05:51:59;23.83;;;13.03;;
36443;SDS011;24692;45.642;13.806;2022-12-18T05:54:26;22.50;;;12.10;;
36443;SDS011;24692;45.642;13.806;2022-12-18T05:56:53;20.23;;;11.63;;
36443;SDS011;24692;45.642;13.806;2022-12-18T05:59:19;20.87;;;11.03;;
36443;SDS011;24692;45.642;13.806;2022-12-18T06:01:44;20.57;;;12.30;;
36443;SDS011;24692;45.642;13.806;2022-12-18T06:04:11;22.07;;;11.60;;
36443;SDS011;24692;45.642;13.806;2022-12-18T06:06:37;19.90;;;11.60;;
36443;SDS011;24692;45.642;13.806;2022-12-18T06:09:02;21.73;;;11.97;;
36443;SDS011;24692;45.642;13.806;2022-12-18T06:11:33;20.47;;;11.03;;
36443;SDS011;24692;45.642;13.806;2022-12-18T06:13:59;19.17;;;11.03;;
36443;SDS011;24692;45.642;13.806;2022-12-18T06:16:26;20.93;;;11.73;;
36443;SDS011;24692;45.642;13.806;2022-12-18T06:18:52;21.03;;;12.40;;
36443;SDS011;24692;45.642;13.806;2022-12-18T06:21:18;19.00;;;11.40;;
36443;SDS011;24692;45.642;13.806;2022-12-18T06:23:44;21.27;;;11.60;;
36443;SDS011;24692;45.642;13.806;2022-12-18T06:26:11;21.53;;;11.30;;
36443;SDS011;24692;45.642;13.806;2022-12-18T06:28:37;20.13;;;11.63;;
36443;SDS011;24692;45.642;13.806;2022-12-18T06:31:03;22.03;;;12.10;;
36443;SDS011;24692;45.642;13.806;2022-12-18T06:33:30;21.17;;;12.07;;
36443;SDS011;24692;45.642;13.806;2022-12-18T06:35:59;23.00;;;12.60;;
36443;SDS011;24692;45.642;13.806;2022-12-18T06:38:31;20.87;;;11.70;;
36443;SDS011;24692;45.642;13.806;2022-12-18T06:40:57;21.10;;;12.53;;
36443;SDS011;24692;45.642;13.806;2022-12-18T06:43:23;23.30;;;12.87;;
36443;SDS011;24692;45.642;13.806;2022-12-18T06:45:49;25.90;;;13.23;;
36443;SDS011;24692;45.642;13.806;2022-12-18T06:48:18;23.33;;;13.30;;
36443;SDS011;24692;45.642;13.806;2022-12-18T06:50:44;23.80;;;13.33;;
36443;SDS011;24692;45.642;13.806;2022-12-18T06:53:10;23.37;;;13.50;;
36443;SDS011;24692;45.642;13.806;2022-12-18T06:55:36;24.43;;;12.97;;
36443;SDS011;24692;45.642;13.806;2022-12-18T06:58:02;25.63;;;13.80;;
36443;SDS011;24692;45.642;13.806;2022-12-18T07:00:27;23.50;;;13.13;;
36443;SDS011;24692;45.642;13.806;2022-12-18T07:02:53;24.43;;;13.27;;
36443;SDS011;24692;45.642;13.806;2022-12-18T07:05:18;23.67;;;13.27;;
36443;SDS011;24692;45.642;13.806;2022-12-18T07:07:44;24.60;;;13.67;;
36443;SDS011;24692;45.642;13.806;2022-12-18T07:10:10;24.00;;;12.97;;
36443;SDS011;24692;45.642;13.806;2022-12-18T07:12:35;24.37;;;13.27;;
36443;SDS011;24692;45.642;13.806;2022-12-18T07:15:01;24.00;;;13.67;;
36443;SDS011;24692;45.642;13.806;2022-12-18T07:17:27;20.37;;;11.73;;
36443;SDS011;24692;45.642;13.806;2022-12-18T07:19:54;21.90;;;12.40;;
36443;SDS011;24692;45.642;13.806;2022-12-18T07:22:20;21.53;;;12.33;;
36443;SDS011;24692;45.642;13.806;2022-12-18T07:24:46;20.97;;;10.60;;
36443;SDS011;24692;45.642;13.806;2022-12-18T07:27:14;21.33;;;11.60;;
36443;SDS011;24692;45.642;13.806;2022-12-18T07:29:40;21.23;;;11.43;;
36443;SDS011;24692;45.642;13.806;2022-12-18T07:32:06;18.37;;;11.20;;
36443;SDS011;24692;45.642;13.806;2022-12-18T07:34:32;19.37;;;11.30;;
36443;SDS011;24692;45.642;13.806;2022-12-18T07:36:58;17.83;;;10.50;;
36443;SDS011;24692;45.642;13.806;2022-12-18T07:39:23;15.97;;;9.87;;
36443;SDS011;24692;45.642;13.806;2022-12-18T07:41:49;16.63;;;10.50;;
36443;SDS011;24692;45.642;13.806;2022-12-18T07:44:35;16.10;;;9.90;;
36443;SDS011;24692;45.642;13.806;2022-12-18T07:47:01;15.10;;;9.53;;
36443;SDS011;24692;45.642;13.806;2022-12-18T07:49:27;14.33;;;9.10;;
36443;SDS011;24692;45.642;13.806;2022-12-18T07:51:54;15.23;;;9.20;;
36443;SDS011;24692;45.642;13.806;2022-12-18T07:54:21;15.73;;;8.70;;
36443;SDS011;24692;45.642;13.806;2022-12-18T07:56:47;15.80;;;9.50;;
36443;SDS011;24692;45.642;13.806;2022-12-18T07:59:13;15.43;;;8.90;;
36443;SDS011;24692;45.642;13.806;2022-12-18T08:01:39;13.47;;;8.23;;
36443;SDS011;24692;45.642;13.806;2022-12-18T08:04:05;13.30;;;8.90;;
36443;SDS011;24692;45.642;13.806;2022-12-18T08:06:31;11.87;;;7.90;;
36443;SDS011;24692;45.642;13.806;2022-12-18T08:08:56;12.63;;;8.43;;
36443;SDS011;24692;45.642;13.806;2022-12-18T08:11:25;13.70;;;8.90;;
36443;SDS011;24692;45.642;13.806;2022-12-18T08:13:52;11.97;;;8.57;;
36443;SDS011;24692;45.642;13.806;2022-12-18T08:16:18;11.67;;;8.20;;
36443;SDS011;24692;45.642;13.806;2022-12-18T08:18:44;12.50;;;8.63;;
36443;SDS011;24692;45.642;13.806;2022-12-18T08:21:15;12.73;;;7.93;;
36443;SDS011;24692;45.642;13.806;2022-12-18T08:23:43;12.00;;;8.10;;
36443;SDS011;24692;45.642;13.806;2022-12-18T08:26:12;10.77;;;7.67;;
36443;SDS011;24692;45.642;13.806;2022-12-18T08:28:38;13.03;;;8.33;;
36443;SDS011;24692;45.642;13.806;2022-12-18T08:31:05;13.47;;;8.60;;
36443;SDS011;24692;45.642;13.806;2022-12-18T08:33:31;12.30;;;8.33;;
36443;SDS011;24692;45.642;13.806;2022-12-18T08:35:58;11.30;;;8.37;;
36443;SDS011;24692;45.642;13.806;2022-12-18T08:38:24;12.13;;;7.80;;
36443;SDS011;24692;45.642;13.806;2022-12-18T08:40:53;11.43;;;7.93;;
36443;SDS011;24692;45.642;13.806;2022-12-18T08:43:30;12.00;;;8.00;;
36443;SDS011;24692;45.642;13.806;2022-12-18T08:46:14;12.87;;;8.30;;
36443;SDS011;24692;45.642;13.806;2022-12-18T08:48:40;11.77;;;8.43;;
36443;SDS011;24692;45.642;13.806;2022-12-18T08:51:05;11.43;;;8.40;;
36443;SDS011;24692;45.642;13.806;2022-12-18T08:53:31;13.00;;;8.43;;
36443;SDS011;24692;45.642;13.806;2022-12-18T08:55:57;12.30;;;8.60;;
36443;SDS011;24692;45.642;13.806;2022-12-18T08:58:23;11.60;;;8.23;;
36443;SDS011;24692;45.642;13.806;2022-12-18T09:00:48;12.07;;;9.03;;
36443;SDS011;24692;45.642;13.806;2022-12-18T09:03:17;12.80;;;8.63;;
36443;SDS011;24692;45.642;13.806;2022-12-18T09:05:45;12.87;;;8.80;;
36443;SDS011;24692;45.642;13.806;2022-12-18T09:08:11;12.80;;;9.00;;
36443;SDS011;24692;45.642;13.806;2022-12-18T09:10:41;12.43;;;8.80;;
36443;SDS011;24692;45.642;13.806;2022-12-18T09:13:09;13.63;;;9.13;;
36443;SDS011;24692;45.642;13.806;2022-12-18T09:15:48;14.77;;;9.50;;
36443;SDS011;24692;45.642;13.806;2022-12-18T09:18:15;12.63;;;9.00;;
36443;SDS011;24692;45.642;13.806;2022-12-18T09:20:42;13.00;;;8.97;;
36443;SDS011;24692;45.642;13.806;2022-12-18T09:23:09;14.57;;;9.33;;
36443;SDS011;24692;45.642;13.806;2022-12-18T09:25:36;13.47;;;9.30;;
36443;SDS011;24692;45.642;13.806;2022-12-18T09:28:02;13.87;;;9.40;;
36443;SDS011;24692;45.642;13.806;2022-12-18T09:30:29;14.77;;;9.93;;
36443;SDS011;24692;45.642;13.806;2022-12-18T09:32:55;13.87;;;9.43;;
36443;SDS011;24692;45.642;13.806;2022-12-18T09:35:21;14.03;;;9.13;;
36443;SDS011;24692;45.642;13.806;2022-12-18T09:37:47;14.37;;;9.17;;
36443;SDS011;24692;45.642;13.806;2022-12-18T09:40:14;12.90;;;8.73;;
36443;SDS011;24692;45.642;13.806;2022-12-18T09:42:43;14.97;;;9.53;;
36443;SDS011;24692;45.642;13.806;2022-12-18T09:45:13;14.77;;;9.73;;
36443;SDS011;24692;45.642;13.806;2022-12-18T09:47:40;13.50;;;9.43;;
36443;SDS011;24692;45.642;13.806;2022-12-18T09:50:25;14.07;;;9.80;;
36443;SDS011;24692;45.642;13.806;2022-12-18T09:52:56;14.23;;;9.23;;
36443;SDS011;24692;45.642;13.806;2022-12-18T09:55:32;13.30;;;9.07;;
36443;SDS011;24692;45.642;13.806;2022-12-18T09:58:04;13.37;;;9.47;;
36443;SDS011;24692;45.642;13.806;2022-12-18T10:00:53;15.93;;;10.53;;
36443;SDS011;24692;45.642;13.806;2022-12-18T10:03:20;15.57;;;10.83;;
36443;SDS011;24692;45.642;13.806;2022-12-18T10:13:53;15.60;;;10.33;;
36443;SDS011;24692;45.642;13.806;2022-12-18T10:16:35;13.73;;;9.70;;
36443;SDS011;24692;45.642;13.806;2022-12-18T10:19:29;14.00;;;9.83;;
36443;SDS011;24692;45.642;13.806;2022-12-18T10:25:09;14.70;;;9.47;;
36443;SDS011;24692;45.642;13.806;2022-12-18T10:27:39;14.43;;;9.50;;
36443;SDS011;24692;45.642;13.806;2022-12-18T10:30:19;15.60;;;10.13;;
36443;SDS011;24692;45.642;13.806;2022-12-18T10:32:47;16.93;;;10.60;;
36443;SDS011;24692;45.642;13.806;2022-12-18T10:35:26;15.03;;;10.47;;
36443;SDS011;24692;45.642;13.806;2022-12-18T10:43:30;15.27;;;10.33;;
36443;SDS011;24692;45.642;13.806;2022-12-18T10:51:04;17.00;;;10.43;;
36443;SDS011;24692;45.642;13.806;2022-12-18T10:53:32;15.43;;;10.40;;
36443;SDS011;24692;45.642;13.806;2022-12-18T10:56:00;13.80;;;9.67;;
36443;SDS011;24692;45.642;13.806;2022-12-18T10:58:30;15.30;;;10.07;;
36443;SDS011;24692;45.642;13.806;2022-12-18T11:03:37;15.87;;;10.93;;
36443;SDS011;24692;45.642;13.806;2022-12-18T11:06:17;15.30;;;10.37;;
36443;SDS011;24692;45.642;13.806;2022-12-18T11:08:46;16.93;;;10.80;;
36443;SDS011;24692;45.642;13.806;2022-12-18T11:11:26;17.00;;;11.10;;
36443;SDS011;24692;45.642;13.806;2022-12-18T11:16:27;16.03;;;10.80;;
36443;SDS011;24692;45.642;13.806;2022-12-18T11:18:59;15.27;;;10.40;;
36443;SDS011;24692;45.642;13.806;2022-12-18T11:21:53;14.50;;;10.30;;
36443;SDS011;24692;45.642;13.806;2022-12-18T11:24:32;15.13;;;10.33;;
36443;SDS011;24692;45.642;13.806;2022-12-18T11:27:03;14.57;;;10.03;;
36443;SDS011;24692;45.642;13.806;2022-12-18T11:29:32;15.80;;;10.27;;
36443;SDS011;24692;45.642;13.806;2022-12-18T11:32:21;15.30;;;9.83;;
36443;SDS011;24692;45.642;13.806;2022-12-18T11:34:59;13.47;;;9.67;;
36443;SDS011;24692;45.642;13.806;2022-12-18T11:37:39;15.60;;;10.33;;
36443;SDS011;24692;45.642;13.806;2022-12-18T11:40:18;13.67;;;9.53;;
36443;SDS011;24692;45.642;13.806;2022-12-18T11:42:50;15.37;;;10.60;;
36443;SDS011;24692;45.642;13.806;2022-12-18T11:45:25;16.00;;;10.33;;
36443;SDS011;24692;45.642;13.806;2022-12-18T11:47:57;13.40;;;9.93;;
36443;SDS011;24692;45.642;13.806;2022-12-18T11:53:20;13.10;;;9.50;;
36443;SDS011;24692;45.642;13.806;2022-12-18T12:01:01;14.33;;;9.00;;
36443;SDS011;24692;45.642;13.806;2022-12-18T12:03:51;12.73;;;8.63;;
36443;SDS011;24692;45.642;13.806;2022-12-18T12:09:23;13.40;;;9.37;;
36443;SDS011;24692;45.642;13.806;2022-12-18T12:26:11;12.83;;;9.13;;
36443;SDS011;24692;45.642;13.806;2022-12-18T12:34:46;11.97;;;8.87;;
36443;SDS011;24692;45.642;13.806;2022-12-18T12:37:43;13.63;;;8.70;;
36443;SDS011;24692;45.642;13.806;2022-12-18T12:40:20;11.83;;;8.43;;
36443;SDS011;24692;45.642;13.806;2022-12-18T12:42:52;12.67;;;8.43;;
36443;SDS011;24692;45.642;13.806;2022-12-18T12:45:40;12.00;;;8.30;;
36443;SDS011;24692;45.642;13.806;2022-12-18T12:48:44;11.87;;;8.53;;
36443;SDS011;24692;45.642;13.806;2022-12-18T12:51:16;12.13;;;8.50;;
36443;SDS011;24692;45.642;13.806;2022-12-18T12:53:48;11.57;;;8.17;;
36443;SDS011;24692;45.642;13.806;2022-12-18T12:56:15;11.97;;;8.00;;
36443;SDS011;24692;45.642;13.806;2022-12-18T13:04:42;10.30;;;7.43;;
36443;SDS011;24692;45.642;13.806;2022-12-18T13:06:59;10.43;;;7.67;;
36443;SDS011;24692;45.642;13.806;2022-12-18T13:09:29;11.80;;;8.17;;
36443;SDS011;24692;45.642;13.806;2022-12-18T13:12:08;11.40;;;8.27;;
36443;SDS011;24692;45.642;13.806;2022-12-18T13:14:55;11.20;;;7.83;;
36443;SDS011;24692;45.642;13.806;2022-12-18T13:17:45;10.73;;;8.00;;
36443;SDS011;24692;45.642;13.806;2022-12-18T13:20:12;11.53;;;8.30;;
36443;SDS011;24692;45.642;13.806;2022-12-18T13:22:44;11.47;;;8.37;;
36443;SDS011;24692;45.642;13.806;2022-12-18T13:25:30;12.33;;;8.80;;
36443;SDS011;24692;45.642;13.806;2022-12-18T13:43:53;12.93;;;8.80;;
36443;SDS011;24692;45.642;13.806;2022-12-18T13:46:27;12.80;;;9.03;;
36443;SDS011;24692;45.642;13.806;2022-12-18T13:49:02;12.67;;;9.23;;
36443;SDS011;24692;45.642;13.806;2022-12-18T13:51:32;13.23;;;9.67;;
36443;SDS011;24692;45.642;13.806;2022-12-18T13:56:45;14.67;;;9.53;;
36443;SDS011;24692;45.642;13.806;2022-12-18T14:02:05;14.90;;;9.80;;
36443;SDS011;24692;45.642;13.806;2022-12-18T14:04:40;12.47;;;8.83;;
36443;SDS011;24692;45.642;13.806;2022-12-18T14:07:12;14.87;;;10.13;;
36443;SDS011;24692;45.642;13.806;2022-12-18T14:09:42;13.53;;;9.40;;
36443;SDS011;24692;45.642;13.806;2022-12-18T14:12:32;14.10;;;9.03;;
36443;SDS011;24692;45.642;13.806;2022-12-18T14:20:22;13.20;;;9.07;;
36443;SDS011;24692;45.642;13.806;2022-12-18T14:22:49;11.97;;;8.37;;
36443;SDS011;24692;45.642;13.806;2022-12-18T14:25:16;11.83;;;9.07;;
36443;SDS011;24692;45.642;13.806;2022-12-18T14:27:46;15.27;;;9.80;;
36443;SDS011;24692;45.642;13.806;2022-12-18T14:30:51;14.03;;;9.10;;
36443;SDS011;24692;45.642;13.806;2022-12-18T14:33:22;14.13;;;9.30;;
36443;SDS011;24692;45.642;13.806;2022-12-18T14:35:54;15.20;;;8.97;;
36443;SDS011;24692;45.642;13.806;2022-12-18T14:38:26;15.20;;;8.80;;
36443;SDS011;24692;45.642;13.806;2022-12-18T14:43:23;14.93;;;9.47;;
36443;SDS011;24692;45.642;13.806;2022-12-18T14:45:49;14.53;;;9.60;;
36443;SDS011;24692;45.642;13.806;2022-12-18T14:50:42;14.40;;;9.23;;
36443;SDS011;24692;45.642;13.806;2022-12-18T14:53:22;13.83;;;9.30;;
36443;SDS011;24692;45.642;13.806;2022-12-18T14:55:53;14.67;;;9.47;;
36443;SDS011;24692;45.642;13.806;2022-12-18T14:58:19;15.93;;;10.47;;
36443;SDS011;24692;45.642;13.806;2022-12-18T15:00:45;14.53;;;9.37;;
36443;SDS011;24692;45.642;13.806;2022-12-18T15:03:12;14.23;;;9.97;;
36443;SDS011;24692;45.642;13.806;2022-12-18T15:05:43;15.53;;;9.70;;
36443;SDS011;24692;45.642;13.806;2022-12-18T15:08:29;14.23;;;9.37;;
36443;SDS011;24692;45.642;13.806;2022-12-18T15:11:23;15.30;;;9.43;;
36443;SDS011;24692;45.642;13.806;2022-12-18T15:13:57;16.67;;;9.57;;
36443;SDS011;24692;45.642;13.806;2022-12-18T15:16:24;15.27;;;9.37;;
36443;SDS011;24692;45.642;13.806;2022-12-18T15:18:49;15.00;;;9.83;;
36443;SDS011;24692;45.642;13.806;2022-12-18T15:21:16;14.50;;;9.57;;
36443;SDS011;24692;45.642;13.806;2022-12-18T15:26:10;15.17;;;8.87;;
36443;SDS011;24692;45.642;13.806;2022-12-18T15:28:38;14.47;;;9.43;;
36443;SDS011;24692;45.642;13.806;2022-12-18T15:33:38;15.03;;;9.03;;
36443;SDS011;24692;45.642;13.806;2022-12-18T15:36:15;15.50;;;9.60;;
36443;SDS011;24692;45.642;13.806;2022-12-18T15:38:45;17.70;;;9.40;;
36443;SDS011;24692;45.642;13.806;2022-12-18T15:41:15;14.83;;;9.23;;
36443;SDS011;24692;45.642;13.806;2022-12-18T15:43:43;14.43;;;9.07;;
36443;SDS011;24692;45.642;13.806;2022-12-18T15:46:13;16.80;;;9.23;;
36443;SDS011;24692;45.642;13.806;2022-12-18T15:48:50;15.20;;;9.90;;
36443;SDS011;24692;45.642;13.806;2022-12-18T15:53:46;17.00;;;10.10;;
36443;SDS011;24692;45.642;13.806;2022-12-18T15:56:16;16.93;;;10.07;;
36443;SDS011;24692;45.642;13.806;2022-12-18T15:59:01;17.00;;;10.33;;
36443;SDS011;24692;45.642;13.806;2022-12-18T16:01:28;16.03;;;9.70;;
36443;SDS011;24692;45.642;13.806;2022-12-18T16:03:56;15.23;;;9.43;;
36443;SDS011;24692;45.642;13.806;2022-12-18T16:06:22;15.57;;;9.40;;
36443;SDS011;24692;45.642;13.806;2022-12-18T16:08:48;14.77;;;9.60;;
36443;SDS011;24692;45.642;13.806;2022-12-18T16:14:04;15.60;;;9.43;;
36443;SDS011;24692;45.642;13.806;2022-12-18T16:16:30;16.63;;;10.33;;
36443;SDS011;24692;45.642;13.806;2022-12-18T16:18:56;18.37;;;10.50;;
36443;SDS011;24692;45.642;13.806;2022-12-18T16:21:22;14.10;;;9.07;;
36443;SDS011;24692;45.642;13.806;2022-12-18T16:23:47;16.00;;;9.27;;
36443;SDS011;24692;45.642;13.806;2022-12-18T16:26:13;17.37;;;10.20;;
36443;SDS011;24692;45.642;13.806;2022-12-18T16:28:38;13.93;;;8.73;;
36443;SDS011;24692;45.642;13.806;2022-12-18T16:31:04;16.23;;;9.37;;
36443;SDS011;24692;45.642;13.806;2022-12-18T16:33:30;15.20;;;9.40;;
36443;SDS011;24692;45.642;13.806;2022-12-18T16:35:56;13.80;;;8.93;;
36443;SDS011;24692;45.642;13.806;2022-12-18T16:38:21;12.50;;;8.17;;
36443;SDS011;24692;45.642;13.806;2022-12-18T16:40:47;14.70;;;8.90;;
36443;SDS011;24692;45.642;13.806;2022-12-18T16:43:31;14.20;;;9.03;;
36443;SDS011;24692;45.642;13.806;2022-12-18T16:45:58;14.17;;;8.57;;
36443;SDS011;24692;45.642;13.806;2022-12-18T16:48:24;14.57;;;8.67;;
36443;SDS011;24692;45.642;13.806;2022-12-18T16:50:50;15.27;;;8.67;;
36443;SDS011;24692;45.642;13.806;2022-12-18T16:53:24;15.50;;;8.80;;